Главная страница
METAR-TAF:

METAR-TAF

Аэропорты :

Ресифи, Пернамбуку, Бразилия

широта: 08-08S, долгота: 034-55W, высота над уровнем моря: 19 м

Текущие метеонаблюдения

Эта сводка был подготовлена 52 минут назад, в 21:00 UTC
Ветер 6 Узел от восточный, изменяющийся между северо-восточный и юго-восточный
Температура 26°C
Влажность 79%
Давление 1012 hPa
Видимость 10 км и более
Отдельные облака на высоте 2100 фута

METAR: SBRF 182100Z 09006KT 040V130 9999 SCT021 26/22 Q1012

Время: 18:52 (21:52 UTC)

Прогноз

Эта сводка был подготовлена 6 часа и 52 минут назад, в 15:00 UTC
Прогноз действительный с 18-го 18 UTC до 19-го 18 UTC
Ветер 9 Узел от восточный
Видимость 10 км и более
Отдельные облака на высоте 2200 фута

TAF: SBRF 181500Z 1818/1918 08009KT 9999 SCT022 TN25/1908Z TX28/1915Z RMK PCN

Метеонаблюдения и прогнозы для более 4000 аэропортов (сводки METAR и TAF).

Имеющиеся станции представлены на карте желтыми и красными точками.

Чтобы увидеть название станции, наведите на нее мышь.

Затем щелкните, чтобы увидеть метеонаблюдения и метеопрогнозы.

Управление картой: чтобы увеличить масштаб, щелкните зеленые кнопки с черным крестиком; чтобы уменьшить масштаб, щелкните зеленую кнопку с тире; для просмотра соседних карт щелкайте зеленые стрелки.


METAR-TAF: